METAR Reports From Nearby Airports

 

KTIW - Tacoma, Washington, USA
Distance from station: S 6mi, 10km
Updated: Wed, 20-Sep-2017 7:53pm PDT
Mostly cloudy
Mostly cloudy
 Wind from S
Wind: S 3 mph , 6 km/h
Temperature: 54°F , 12°C
Dew Point: 46°F , 8°C
Humidity: 77%
Barometer: 29.80 inHg , 1009.1 hPa
Clouds: Mostly cloudy
Visibility: 10 miles , 16 km
Cloud details: Partly cloudy 4100 ft
Mostly cloudy 5000 ft
Mostly cloudy 7000 ft
2017/09/21 02:53 KTIW 210253Z 18003KT 10SM SCT041 BKN050 BKN070 12/08 A2980 RMK AO2 SLP092 T01170078 51011
KPWT - Bremerton Ntnl, Washington, USA
Distance from station: NW 13mi, 20km
Updated: Wed, 20-Sep-2017 7:56pm PDT
Mostly cloudy
Mostly cloudy
 Wind from SSW
Wind: SSW 3 mph , 6 km/h
Temperature: 52°F , 11°C
Dew Point: 48°F , 9°C
Humidity: 88%
Barometer: 29.80 inHg , 1009.1 hPa
Clouds: Mostly cloudy
Visibility: 10 miles , 16 km
Cloud details: Few Clouds 4900 ft
Mostly cloudy 6000 ft
2017/09/21 02:56 KPWT 210256Z AUTO 20003KT 10SM FEW049 BKN060 11/09 A2980 RMK AO2 SLP111 T01060094 52010
KSEA - Seattle/Metro, Washington, USA
Distance from station: ENE 14mi, 23km
Updated: Wed, 20-Sep-2017 7:53pm PDT
Mostly cloudy
Mostly cloudy
 Wind from SSE
Wind: SSE 5 mph , 7 km/h
Temperature: 54°F , 12°C
Dew Point: 46°F , 8°C
Humidity: 77%
Barometer: 29.81 inHg , 1009.5 hPa
Clouds: Mostly cloudy
Visibility: 10 miles , 16 km
Cloud details: Few Clouds 2000 ft
Mostly cloudy 6000 ft
2017/09/21 02:53 KSEA 210253Z 16004KT 10SM FEW020 BKN060 12/08 A2981 RMK AO2 SLP099 T01220078 53013 $
 
KTCM - Tacoma/Mc Chord, Washington, USA
Distance from station: SSE 17mi, 28km
Updated: Wed, 20-Sep-2017 7:58pm PDT
Overcast
Overcast
 Wind from calm
Wind: Calm
Temperature: 54°F , 12°C
Dew Point: 52°F , 11°C
Humidity: 94%
Barometer: 29.81 inHg , 1009.5 hPa
Clouds: Overcast
Visibility: 10 miles , 16 km
Cloud details: Overcast 5500 ft
2017/09/21 02:58 KTCM 210258Z AUTO 00000KT 10SM OVC055 12/11 A2981 RMK AO2 SLP099 T01180108 52014 $
KBFI - Seattle/Boeing, Washington, USA
Distance from station: NE 19mi, 30km
Updated: Wed, 20-Sep-2017 7:53pm PDT
Mostly cloudy
Mostly cloudy
 Wind from SSE
Wind: SSE 6 mph , 9 km/h
Temperature: 54°F , 12°C
Dew Point: 48°F , 9°C
Humidity: 82%
Barometer: 29.80 inHg , 1009.1 hPa
Clouds: Mostly cloudy
Visibility: 10 miles , 16 km
Cloud details: Partly cloudy 5500 ft
Mostly cloudy 7000 ft
2017/09/21 02:53 KBFI 210253Z 16005KT 10SM SCT055 BKN070 12/09 A2980 RMK AO2 SLP092 T01220089 51014
KGRF - Fort Lewis/Gray, Washington, USA
Distance from station: S 20mi, 32km
Updated: Wed, 20-Sep-2017 7:58pm PDT
Overcast
Overcast
 Wind from S
Wind: S 5 mph , 7 km/h
Temperature: 54°F , 12°C
Dew Point: 52°F , 11°C
Humidity: 94%
Barometer: 29.80 inHg , 1009.1 hPa
Clouds: Overcast
Visibility: 10 miles , 16 km
Cloud details: Overcast 5500 ft
2017/09/21 02:58 KGRF 210258Z AUTO 17004KT 10SM OVC055 12/11 A2980 RMK AO2 SLP095 T01240105 52014
 
KRNT - Renton, Washington, USA
Distance from station: ENE 20mi, 32km
Updated: Wed, 20-Sep-2017 7:53pm PDT
Overcast
Overcast
 Wind from calm
Wind: Calm
Temperature: 54°F , 12°C
Dew Point: 52°F , 11°C
Humidity: 94%
Barometer: 29.80 inHg , 1009.1 hPa
Clouds: Overcast
Visibility: 10 miles , 16 km
Cloud details: Overcast 6500 ft
2017/09/21 02:53 KRNT 210253Z 00000KT 10SM OVC065 12/11 A2980 RMK AO2 SLP097 T01220106 53014
KPLU - Puyallup/Thun, Washington, USA
Distance from station: SE 23mi, 36km
Updated: Wed, 20-Sep-2017 8:15pm PDT
Overcast
Overcast
 Wind from calm
Wind: Calm
Temperature: 52°F , 11°C
Dew Point: 52°F , 11°C
Humidity: 100%
Barometer: 29.81 inHg , 1009.5 hPa
Clouds: Overcast
Visibility: 10 miles , 16 km
Cloud details: Partly cloudy 4800 ft
Mostly cloudy 5500 ft
Overcast 6500 ft
2017/09/21 03:15 KPLU 210315Z AUTO 00000KT 10SM SCT048 BKN055 OVC065 11/11 A2981 RMK AO2
KSHN - Shelton, Washington, USA
Distance from station: WSW 27mi, 43km
Updated: Wed, 20-Sep-2017 7:53pm PDT
Overcast
Overcast
 Wind from calm
Wind: Calm
Temperature: 54°F , 12°C
Dew Point: 52°F , 11°C
Humidity: 94%
Barometer: 29.78 inHg , 1008.5 hPa
Clouds: Overcast
Visibility: 10 miles , 16 km
Cloud details: Overcast 6000 ft
2017/09/21 02:53 KSHN 210253Z AUTO 00000KT 10SM OVC060 12/11 A2978 RMK AO2 RAE07 SLP087 P0000 60000 T01220106 51015
 
KOLM - Olympia, Washington, USA
Distance from station: SSW 30mi, 49km
Updated: Wed, 20-Sep-2017 7:54pm PDT
Mostly cloudy
Mostly cloudy
 Wind from WSW
Wind: WSW 5 mph , 7 km/h
Temperature: 54°F , 12°C
Dew Point: 48°F , 9°C
Humidity: 82%
Barometer: 29.81 inHg , 1009.5 hPa
Clouds: Mostly cloudy
Visibility: 10 miles , 16 km
Cloud details: Few Clouds 3000 ft
Mostly cloudy 4700 ft
2017/09/21 02:54 KOLM 210254Z AUTO 25004KT 10SM FEW030 BKN047 12/09 A2981 RMK AO2 SLP095 T01220094 53016
KPAE - Everett, Washington, USA
Distance from station: NNE 41mi, 67km
Updated: Wed, 20-Sep-2017 7:53pm PDT
Overcast
Overcast
 Wind from S
Wind: S 6 mph , 9 km/h
Temperature: 54°F , 12°C
Dew Point: 48°F , 9°C
Humidity: 82%
Barometer: 29.80 inHg , 1009.1 hPa
Clouds: Overcast
Visibility: 10 miles , 16 km
Cloud details: Overcast 6000 ft
2017/09/21 02:53 KPAE 210253Z 19005KT 10SM OVC060 12/09 A2980 RMK AO2 SLP094 T01170094 53016
KCLS - Chehalis Central, Washington, USA
Distance from station: SSW 50mi, 80km
Updated: Wed, 20-Sep-2017 8:15pm PDT
Overcast
Overcast
 Wind from calm
Wind: Calm
Temperature: 52°F , 11°C
Dew Point: 52°F , 11°C
Humidity: 100%
Barometer: 29.83 inHg , 1010.2 hPa
Clouds: Overcast
Visibility: 10 miles , 16 km
Cloud details: Mostly cloudy 4500 ft
Overcast 5000 ft
2017/09/21 03:15 KCLS 210315Z AUTO 00000KT 10SM BKN045 OVC050 11/11 A2983 RMK AO2